Aérodrome :
LOGIN :

S'inscrire | Disclaimer

   EN    FR    IT 

 










Légende :    VFR   VFR Marginal   IFR   IFR Intensif   IFR Très Intensif
Visi : 
Plafond : 
>= 8 km
>= 3000ft
5 à 8 km
1000 à 3000 ft
1500m à 5 km
500 à 1000 ft
800 à 1500m
200 à 500 ft
< 800m
< 200 ft
Symboles :   Orages  Brouillard  Fortes neiges  Fortes précipitations  Vent > 20 kt
SIGMETs :   Divers  Orages  Givrage  Turbulence  Onde Orograph.  Cendres Volcan.






- Altitude de l'aérodrome : 751 ft
- Code IATA : ENC


LFSN - Nancy Essey

DERNIER METAR :
  • 301930Z AUTO 26005KT 220V310 9999 -RA FEW020/// BKN068/// OVC098/// //////CB 15/12 Q1016

METARs EXPIRÉS :
  • 301900Z AUTO 29004KT 260V360 9999 FEW021/// OVC056/// ///TCU 15/12 Q1016
  • 301830Z AUTO 30005KT 260V340 9999 ///TCU 16/12 Q1015
  • 301800Z AUTO 30008KT 270V350 9999 -RA BKN046/// BKN052/// BKN082/// //////TCU 16/11 Q1015
  • 301730Z AUTO 31009KT 270V350 9999 SCT046 BKN090 OVC120 17/11 Q1015
  • 301700Z AUTO 31012KT 270V330 9999 FEW044/// SCT092/// BKN110/// //////TCU 17/11 Q1014

Prévision TAF périmée.



MET'MAP, la Météo Aéronautique d'un coup d'oeil ! - Copyright ORBIFLY Décembre 2007 - Disclaimer

ORBIFLY MET'MAP TEAM :

Programmation & Développement : Alexandra Zaïnal
Sur une idée originale de : Baudouin d'Aumeries
Soutien technique & logistique : Manuel Goepfert
Assistance : Marc-Olivier Méhu




SOURCES & CREDITS :

   NOAA